createdAt,value
2022-07-27T00:00:49.659Z,1013.10
2022-07-27T00:01:50.867Z,1013.04
2022-07-27T00:02:51.538Z,1013.13
2022-07-27T00:03:49.661Z,1013.09
2022-07-27T00:04:49.615Z,1013.08
2022-07-27T00:05:49.572Z,1013.04
2022-07-27T00:06:49.553Z,1013.07
2022-07-27T00:07:49.569Z,1013.05
2022-07-27T00:08:49.544Z,1013.04
2022-07-27T00:09:49.523Z,1013.08
2022-07-27T00:10:49.523Z,1013.03
2022-07-27T00:11:49.506Z,1012.96
2022-07-27T00:12:49.489Z,1012.99
2022-07-27T00:13:49.500Z,1012.98
2022-07-27T00:14:49.465Z,1012.99
2022-07-27T00:15:49.555Z,1013.02
2022-07-27T00:16:49.502Z,1013.03
2022-07-27T00:17:49.437Z,1013.02
2022-07-27T00:18:49.438Z,1013.03
2022-07-27T00:19:49.414Z,1013.05
2022-07-27T00:20:49.392Z,1013.04
2022-07-27T00:21:49.399Z,1013.03
2022-07-27T00:22:49.395Z,1013.04
2022-07-27T00:23:49.365Z,1013.09
2022-07-27T00:24:49.403Z,1013.11
2022-07-27T00:25:49.349Z,1013.09
2022-07-27T00:26:49.329Z,1013.13
2022-07-27T00:27:49.318Z,1013.16
2022-07-27T00:28:49.321Z,1013.14
2022-07-27T00:29:49.306Z,1013.15
2022-07-27T00:30:49.291Z,1013.13
2022-07-27T00:31:49.291Z,1013.13
2022-07-27T00:32:49.261Z,1013.08
2022-07-27T00:33:49.246Z,1013.11
2022-07-27T00:34:49.246Z,1013.05
2022-07-27T00:35:49.239Z,1013.08
2022-07-27T00:36:49.210Z,1013.11
2022-07-27T00:37:49.202Z,1013.04
2022-07-27T00:38:49.185Z,1013.08
2022-07-27T00:39:49.180Z,1013.08
2022-07-27T00:40:49.206Z,1013.11
2022-07-27T00:41:49.155Z,1013.10
2022-07-27T00:42:49.154Z,1013.11
2022-07-27T00:43:49.135Z,1013.05
2022-07-27T00:44:49.123Z,1013.04
2022-07-27T00:45:49.132Z,1013.00
2022-07-27T00:46:49.291Z,1013.06
2022-07-27T00:47:54.589Z,1013.01
2022-07-27T00:48:50.194Z,1013.03
2022-07-27T00:49:49.068Z,1013.04
2022-07-27T00:50:49.066Z,1013.06
2022-07-27T00:51:49.047Z,1013.07
2022-07-27T00:52:49.037Z,1013.02
2022-07-27T00:53:49.021Z,1013.05
2022-07-27T00:54:49.027Z,1013.02
2022-07-27T00:55:49.009Z,1013.04
2022-07-27T00:56:48.988Z,1013.00
2022-07-27T00:57:58.162Z,1012.98
2022-07-27T00:58:49.964Z,1013.03
2022-07-27T00:59:48.952Z,1013.09
2022-07-27T01:00:48.971Z,1013.08
2022-07-27T01:01:49.065Z,1013.09
2022-07-27T01:02:49.078Z,1013.05
2022-07-27T01:03:48.910Z,1013.06
2022-07-27T01:04:48.892Z,1013.10
2022-07-27T01:05:48.903Z,1013.08
2022-07-27T01:06:48.871Z,1013.08
2022-07-27T01:07:48.866Z,1013.02
2022-07-27T01:08:48.851Z,1013.11
2022-07-27T01:09:48.843Z,1013.05
2022-07-27T01:10:48.840Z,1012.98
2022-07-27T01:11:48.816Z,1013.06
2022-07-27T01:12:48.814Z,1012.98
2022-07-27T01:13:48.793Z,1012.96
2022-07-27T01:14:48.783Z,1013.03
2022-07-27T01:15:48.874Z,1012.98
2022-07-27T01:16:48.758Z,1013.00
2022-07-27T01:17:48.771Z,1012.98
2022-07-27T01:18:48.736Z,1012.94
2022-07-27T01:19:48.740Z,1013.02
2022-07-27T01:20:48.716Z,1012.98
2022-07-27T01:21:48.702Z,1013.02
2022-07-27T01:22:48.858Z,1012.98
2022-07-27T01:23:48.680Z,1012.98
2022-07-27T01:24:48.667Z,1012.97
2022-07-27T01:25:48.664Z,1012.91
2022-07-27T01:26:48.661Z,1012.94
2022-07-27T01:27:48.654Z,1012.94
2022-07-27T01:28:48.622Z,1012.93
2022-07-27T01:29:48.615Z,1012.90
2022-07-27T01:30:48.743Z,1012.98
2022-07-27T01:31:48.694Z,1012.91
2022-07-27T01:32:48.587Z,1013.02
2022-07-27T01:33:48.597Z,1012.95
2022-07-27T01:34:48.576Z,1012.91
2022-07-27T01:35:48.559Z,1012.97
2022-07-27T01:36:48.540Z,1012.97
2022-07-27T01:37:48.544Z,1012.93
2022-07-27T01:38:48.515Z,1012.92
2022-07-27T01:39:48.527Z,1012.88
2022-07-27T01:40:48.489Z,1012.87
2022-07-27T01:41:48.492Z,1012.92
2022-07-27T01:42:48.469Z,1012.82
2022-07-27T01:43:48.455Z,1012.87
2022-07-27T01:44:48.466Z,1012.83
2022-07-27T01:45:48.433Z,1012.88
2022-07-27T01:46:48.514Z,1012.90
2022-07-27T01:47:48.430Z,1012.86
2022-07-27T01:48:48.473Z,1012.88
2022-07-27T01:49:48.394Z,1012.90
2022-07-27T01:50:48.406Z,1012.93
2022-07-27T01:51:48.376Z,1012.92
2022-07-27T01:52:48.371Z,1012.86
2022-07-27T01:53:48.365Z,1012.95
2022-07-27T01:54:48.341Z,1012.89
2022-07-27T01:55:48.355Z,1012.90
2022-07-27T01:56:48.380Z,1012.93
2022-07-27T01:57:48.298Z,1012.94
2022-07-27T01:58:48.367Z,1012.98
2022-07-27T01:59:48.272Z,1012.92
2022-07-27T02:00:48.270Z,1012.89
2022-07-27T02:01:48.315Z,1012.95
2022-07-27T02:02:48.249Z,1012.90
2022-07-27T02:03:48.230Z,1012.89
2022-07-27T02:04:48.297Z,1012.91
2022-07-27T02:05:48.366Z,1012.90
2022-07-27T02:06:48.202Z,1012.89
2022-07-27T02:07:48.215Z,1012.89
2022-07-27T02:08:48.189Z,1012.89
2022-07-27T02:09:48.163Z,1012.91
2022-07-27T02:10:48.158Z,1012.95
2022-07-27T02:11:48.139Z,1012.89
2022-07-27T02:12:48.136Z,1012.95
2022-07-27T02:13:48.154Z,1012.97
2022-07-27T02:14:48.107Z,1012.96
2022-07-27T02:15:48.187Z,1012.98
2022-07-27T02:16:48.084Z,1012.97
2022-07-27T02:17:48.079Z,1012.95
2022-07-27T02:18:48.906Z,1012.96
2022-07-27T02:19:48.048Z,1012.93
2022-07-27T02:20:48.039Z,1012.91
2022-07-27T02:21:48.031Z,1012.92
2022-07-27T02:22:48.029Z,1012.95
2022-07-27T02:23:48.030Z,1012.94
2022-07-27T02:24:48.013Z,1012.91
2022-07-27T02:25:47.980Z,1012.90
2022-07-27T02:26:49.561Z,1012.92
2022-07-27T02:27:47.960Z,1012.91
2022-07-27T02:28:47.958Z,1012.94
2022-07-27T02:29:47.953Z,1012.94
2022-07-27T02:30:47.947Z,1012.98
2022-07-27T02:31:47.918Z,1012.91
2022-07-27T02:32:47.936Z,1012.89
2022-07-27T02:33:47.914Z,1012.88
2022-07-27T02:34:47.890Z,1012.87
2022-07-27T02:35:47.888Z,1012.86
2022-07-27T02:36:47.861Z,1012.83
2022-07-27T02:37:47.858Z,1012.86
2022-07-27T02:38:47.835Z,1012.85
2022-07-27T02:39:47.841Z,1012.89
2022-07-27T02:40:47.822Z,1012.89
2022-07-27T02:41:47.827Z,1012.90
2022-07-27T02:42:47.793Z,1012.95
2022-07-27T02:43:47.789Z,1012.92
2022-07-27T02:44:47.787Z,1012.92
2022-07-27T02:45:47.803Z,1012.91
2022-07-27T02:46:47.805Z,1012.99
2022-07-27T02:47:47.734Z,1012.92
2022-07-27T02:48:47.817Z,1012.89
2022-07-27T02:49:47.728Z,1012.87
2022-07-27T02:50:47.709Z,1012.85
2022-07-27T02:51:47.689Z,1012.82
2022-07-27T02:52:47.692Z,1012.84
2022-07-27T02:53:47.668Z,1012.81
2022-07-27T02:54:47.681Z,1012.80
2022-07-27T02:55:47.650Z,1012.88
2022-07-27T02:56:47.635Z,1012.87
2022-07-27T02:57:47.635Z,1012.87
2022-07-27T02:58:47.613Z,1012.89
2022-07-27T02:59:47.599Z,1012.93
2022-07-27T03:00:47.604Z,1012.94
2022-07-27T03:01:47.638Z,1012.89
2022-07-27T03:02:47.583Z,1012.88
2022-07-27T03:03:47.554Z,1012.88
2022-07-27T03:04:47.616Z,1012.88
2022-07-27T03:05:47.545Z,1012.93
2022-07-27T03:06:47.536Z,1012.93
2022-07-27T03:07:47.513Z,1012.95
2022-07-27T03:08:47.502Z,1012.99
2022-07-27T03:09:52.381Z,1012.94
2022-07-27T03:10:48.541Z,1013.00
2022-07-27T03:11:47.476Z,1013.00
2022-07-27T03:12:47.467Z,1013.01
2022-07-27T03:13:47.442Z,1013.01
2022-07-27T03:14:47.442Z,1012.96
2022-07-27T03:15:47.524Z,1012.98
2022-07-27T03:16:47.426Z,1012.95
2022-07-27T03:17:47.489Z,1012.98
2022-07-27T03:18:49.672Z,1012.94
2022-07-27T03:19:47.373Z,1012.93
2022-07-27T03:20:47.398Z,1012.90
2022-07-27T03:21:47.369Z,1012.96
2022-07-27T03:22:47.343Z,1012.91
2022-07-27T03:23:47.341Z,1012.94
2022-07-27T03:24:47.318Z,1012.95
2022-07-27T03:25:47.362Z,1012.97
2022-07-27T03:26:47.311Z,1012.95
2022-07-27T03:27:47.282Z,1012.98
2022-07-27T03:28:47.278Z,1012.93
2022-07-27T03:29:47.261Z,1012.88
2022-07-27T03:30:47.357Z,1012.98
2022-07-27T03:31:47.271Z,1012.94
2022-07-27T03:32:47.239Z,1012.99
2022-07-27T03:33:47.213Z,1012.93
2022-07-27T03:34:47.210Z,1012.84
2022-07-27T03:35:47.201Z,1012.88
2022-07-27T03:36:47.277Z,1012.93
2022-07-27T03:37:47.172Z,1012.90
2022-07-27T03:38:47.161Z,1012.94
2022-07-27T03:39:47.172Z,1012.84
2022-07-27T03:40:47.151Z,1012.95
2022-07-27T03:41:47.132Z,1012.93
2022-07-27T03:42:47.131Z,1012.85
2022-07-27T03:43:47.105Z,1012.93
2022-07-27T03:44:47.110Z,1012.87
2022-07-27T03:45:47.141Z,1012.94
2022-07-27T03:46:47.093Z,1012.90
2022-07-27T03:47:47.083Z,1012.97
2022-07-27T03:48:47.089Z,1013.00
2022-07-27T03:49:47.043Z,1012.95
2022-07-27T03:50:47.029Z,1012.94
2022-07-27T03:51:47.024Z,1012.99
2022-07-27T03:52:47.004Z,1012.96
2022-07-27T03:53:47.003Z,1012.96
2022-07-27T03:54:47.001Z,1013.02
2022-07-27T03:55:46.969Z,1012.99
2022-07-27T03:56:46.973Z,1013.03
2022-07-27T03:57:46.969Z,1012.99
2022-07-27T03:58:46.936Z,1013.05
2022-07-27T03:59:46.949Z,1013.05
2022-07-27T04:00:46.941Z,1012.93
2022-07-27T04:01:47.035Z,1013.01
2022-07-27T04:02:46.988Z,1013.00
2022-07-27T04:03:46.893Z,1012.93
2022-07-27T04:04:46.889Z,1012.96
2022-07-27T04:05:46.853Z,1012.99
2022-07-27T04:06:46.852Z,1012.97
2022-07-27T04:07:46.833Z,1013.04
2022-07-27T04:08:46.832Z,1013.05
2022-07-27T04:09:47.279Z,1013.02
2022-07-27T04:10:46.801Z,1013.04
2022-07-27T04:11:50.906Z,1013.04
2022-07-27T04:12:46.804Z,1013.03
2022-07-27T04:13:47.412Z,1013.06
2022-07-27T04:14:46.769Z,1013.08
2022-07-27T04:15:46.741Z,1013.03
2022-07-27T04:16:46.838Z,1013.11
2022-07-27T04:17:54.999Z,1013.10
2022-07-27T04:18:47.712Z,1013.11
2022-07-27T04:19:46.720Z,1013.17
2022-07-27T04:20:46.707Z,1013.07
2022-07-27T04:21:46.696Z,1013.11
2022-07-27T04:22:46.673Z,1013.10
2022-07-27T04:23:46.657Z,1013.13
2022-07-27T04:24:46.700Z,1013.11
2022-07-27T04:25:46.633Z,1013.16
2022-07-27T04:26:46.629Z,1013.22
2022-07-27T04:27:46.612Z,1013.21
2022-07-27T04:28:46.616Z,1013.23
2022-07-27T04:29:46.594Z,1013.25
2022-07-27T04:30:46.649Z,1013.25
2022-07-27T04:31:46.568Z,1013.29
2022-07-27T04:32:46.560Z,1013.34
2022-07-27T04:33:46.559Z,1013.22
2022-07-27T04:34:46.556Z,1013.33
2022-07-27T04:35:46.563Z,1013.20
2022-07-27T04:36:46.513Z,1013.24
2022-07-27T04:37:58.415Z,1013.20
2022-07-27T04:38:47.527Z,1013.18
2022-07-27T04:39:46.476Z,1013.18
2022-07-27T04:40:46.487Z,1013.20
2022-07-27T04:41:46.454Z,1013.18
2022-07-27T04:42:49.313Z,1013.24
2022-07-27T04:43:46.455Z,1013.23
2022-07-27T04:44:46.422Z,1013.20
2022-07-27T04:45:46.529Z,1013.23
2022-07-27T04:46:46.438Z,1013.25
2022-07-27T04:47:46.385Z,1013.33
2022-07-27T04:48:49.407Z,1013.29
2022-07-27T04:49:46.387Z,1013.31
2022-07-27T04:50:46.355Z,1013.29
2022-07-27T04:51:46.364Z,1013.31
2022-07-27T04:52:46.329Z,1013.32
2022-07-27T04:53:56.771Z,1013.27
2022-07-27T04:54:47.308Z,1013.29
2022-07-27T04:55:46.325Z,1013.25
2022-07-27T04:56:46.317Z,1013.23
2022-07-27T04:57:46.279Z,1013.28
2022-07-27T04:58:46.306Z,1013.24
2022-07-27T04:59:46.259Z,1013.32
2022-07-27T05:00:46.348Z,1013.27
2022-07-27T05:01:46.291Z,1013.24
2022-07-27T05:02:46.227Z,1013.21
2022-07-27T05:03:46.234Z,1013.24
2022-07-27T05:04:46.212Z,1013.26
2022-07-27T05:05:49.988Z,1013.25
2022-07-27T05:06:46.232Z,1013.29
2022-07-27T05:07:46.173Z,1013.34
2022-07-27T05:08:46.153Z,1013.37
2022-07-27T05:09:46.143Z,1013.36
2022-07-27T05:10:46.139Z,1013.33
2022-07-27T05:11:50.838Z,1013.36
2022-07-27T05:12:47.125Z,1013.37
2022-07-27T05:13:46.124Z,1013.40
2022-07-27T05:14:46.082Z,1013.44
2022-07-27T05:15:55.388Z,1013.41
2022-07-27T05:16:47.139Z,1013.45
2022-07-27T05:17:46.049Z,1013.44
2022-07-27T05:18:46.040Z,1013.49
2022-07-27T05:19:46.028Z,1013.39
2022-07-27T05:20:46.048Z,1013.49
2022-07-27T05:21:46.013Z,1013.46
2022-07-27T05:22:45.996Z,1013.58
2022-07-27T05:23:45.983Z,1013.50
2022-07-27T05:24:45.970Z,1013.52
2022-07-27T05:25:45.971Z,1013.52
2022-07-27T05:26:45.963Z,1013.50
2022-07-27T05:27:54.345Z,1013.54
2022-07-27T05:28:46.933Z,1013.56
2022-07-27T05:29:45.914Z,1013.55
2022-07-27T05:30:45.903Z,1013.53
2022-07-27T05:31:45.937Z,1013.58
2022-07-27T05:32:45.882Z,1013.64
2022-07-27T05:33:48.762Z,1013.63
2022-07-27T05:34:45.882Z,1013.59
2022-07-27T05:35:45.848Z,1013.62
2022-07-27T05:36:45.855Z,1013.66
2022-07-27T05:37:45.820Z,1013.63
2022-07-27T05:38:45.816Z,1013.70
2022-07-27T05:39:45.825Z,1013.76
2022-07-27T05:40:45.791Z,1013.81
2022-07-27T05:41:45.782Z,1013.68
2022-07-27T05:42:45.812Z,1013.69
2022-07-27T05:43:45.766Z,1013.75
2022-07-27T05:44:45.752Z,1013.75
2022-07-27T05:45:45.848Z,1013.67
2022-07-27T05:46:45.778Z,1013.71
2022-07-27T05:47:45.732Z,1013.72
2022-07-27T05:48:45.767Z,1013.68
2022-07-27T05:49:45.685Z,1013.71
2022-07-27T05:50:45.680Z,1013.68
2022-07-27T05:51:45.678Z,1013.63
2022-07-27T05:52:45.651Z,1013.70
2022-07-27T05:53:45.640Z,1013.82
2022-07-27T05:54:45.626Z,1013.80
2022-07-27T05:55:58.077Z,1013.78
2022-07-27T05:56:46.621Z,1013.79
2022-07-27T05:57:45.592Z,1013.84
2022-07-27T05:58:45.580Z,1013.74
2022-07-27T05:59:45.583Z,1013.77
2022-07-27T06:00:45.579Z,1013.80
2022-07-27T06:01:45.551Z,1013.79
2022-07-27T06:02:45.548Z,1013.80
2022-07-27T06:03:45.620Z,1013.78
2022-07-27T06:04:45.521Z,1013.84
2022-07-27T06:05:45.503Z,1013.82
2022-07-27T06:06:45.491Z,1013.80
2022-07-27T06:07:45.499Z,1013.80
2022-07-27T06:08:45.480Z,1013.82
2022-07-27T06:09:45.458Z,1013.87
2022-07-27T06:10:45.444Z,1013.82
2022-07-27T06:11:45.434Z,1013.83
2022-07-27T06:12:45.437Z,1013.83
2022-07-27T06:13:45.412Z,1013.87
2022-07-27T06:14:45.408Z,1013.82
2022-07-27T06:15:46.388Z,1013.94
2022-07-27T06:16:45.509Z,1013.91
2022-07-27T06:17:45.387Z,1013.93
2022-07-27T06:18:45.395Z,1013.84
2022-07-27T06:19:45.349Z,1013.87
2022-07-27T06:20:45.332Z,1013.85
2022-07-27T06:21:49.011Z,1013.76
2022-07-27T06:22:46.333Z,1013.86
2022-07-27T06:23:45.321Z,1013.87
2022-07-27T06:24:45.284Z,1013.94
2022-07-27T06:25:45.283Z,1013.93
2022-07-27T06:26:45.262Z,1013.98
2022-07-27T06:27:45.253Z,1014.00
2022-07-27T06:28:45.269Z,1013.91
2022-07-27T06:29:45.233Z,1013.90
2022-07-27T06:30:45.221Z,1013.90
2022-07-27T06:31:45.302Z,1013.89
2022-07-27T06:32:45.198Z,1013.87
2022-07-27T06:33:46.161Z,1013.95
2022-07-27T06:34:46.184Z,1013.95
2022-07-27T06:35:45.188Z,1013.92
2022-07-27T06:36:45.163Z,1013.93
2022-07-27T06:37:45.155Z,1013.79
2022-07-27T06:38:45.130Z,1013.82
2022-07-27T06:39:45.133Z,1013.89
2022-07-27T06:40:45.105Z,1013.91
2022-07-27T06:41:45.097Z,1013.91
2022-07-27T06:42:45.099Z,1014.01
2022-07-27T06:43:45.076Z,1014.03
2022-07-27T06:44:45.078Z,1014.03
2022-07-27T06:45:45.054Z,1014.10
2022-07-27T06:46:45.097Z,1014.06
2022-07-27T06:47:49.744Z,1014.03
2022-07-27T06:48:46.116Z,1014.00
2022-07-27T06:49:45.007Z,1014.02
2022-07-27T06:50:44.991Z,1014.05
2022-07-27T06:51:44.999Z,1014.01
2022-07-27T06:52:44.970Z,1013.97
2022-07-27T06:53:44.963Z,1013.98
2022-07-27T06:54:44.962Z,1014.02
2022-07-27T06:55:44.945Z,1013.97
2022-07-27T06:56:44.946Z,1014.00
2022-07-27T06:57:44.924Z,1013.97
2022-07-27T06:58:44.927Z,1013.96
2022-07-27T06:59:44.906Z,1013.99
2022-07-27T07:00:45.013Z,1014.04
2022-07-27T07:01:48.623Z,1014.01
2022-07-27T07:02:44.862Z,1013.96
2022-07-27T07:03:44.947Z,1013.96
2022-07-27T07:04:44.855Z,1013.98
2022-07-27T07:05:44.846Z,1014.00
2022-07-27T07:06:44.815Z,1013.94
2022-07-27T07:07:44.808Z,1013.98
2022-07-27T07:08:44.812Z,1013.99
2022-07-27T07:09:44.796Z,1013.97
2022-07-27T07:10:44.825Z,1014.03
2022-07-27T07:11:44.765Z,1013.97
2022-07-27T07:12:44.751Z,1013.99
2022-07-27T07:13:45.169Z,1013.99
2022-07-27T07:14:44.728Z,1014.04
2022-07-27T07:15:44.749Z,1014.03
2022-07-27T07:16:44.771Z,1014.08
2022-07-27T07:17:44.718Z,1014.00
2022-07-27T07:18:48.882Z,1014.05
2022-07-27T07:19:45.691Z,1014.08
2022-07-27T07:20:44.676Z,1014.02
2022-07-27T07:21:44.660Z,1014.05
2022-07-27T07:22:44.650Z,1014.10
2022-07-27T07:23:44.916Z,1013.97
2022-07-27T07:24:44.613Z,1014.05
2022-07-27T07:25:44.619Z,1014.01
2022-07-27T07:26:44.611Z,1014.08
2022-07-27T07:27:44.595Z,1014.02
2022-07-27T07:28:44.569Z,1014.06
2022-07-27T07:29:44.580Z,1013.96
2022-07-27T07:30:44.574Z,1013.98
2022-07-27T07:31:44.640Z,1014.04
2022-07-27T07:32:44.551Z,1014.02
2022-07-27T07:33:44.524Z,1014.01
2022-07-27T07:34:44.529Z,1014.01
2022-07-27T07:36:12.901Z,1014.01
2022-07-27T07:36:45.482Z,1013.98
2022-07-27T07:37:44.476Z,1013.95
2022-07-27T07:38:44.491Z,1014.05
2022-07-27T07:39:44.459Z,1014.00
2022-07-27T07:40:45.227Z,1013.98
2022-07-27T07:41:44.427Z,1013.98
2022-07-27T07:42:44.421Z,1013.97
2022-07-27T07:43:44.408Z,1014.00
2022-07-27T07:44:44.428Z,1013.96
2022-07-27T07:45:50.383Z,1013.95
2022-07-27T07:46:47.375Z,1013.97
2022-07-27T07:47:44.389Z,1013.99
2022-07-27T07:48:44.417Z,1013.97
2022-07-27T07:49:44.424Z,1013.97
2022-07-27T07:50:44.351Z,1014.04
2022-07-27T07:51:44.313Z,1013.94
2022-07-27T07:52:44.296Z,1014.03
2022-07-27T07:53:44.298Z,1014.05
2022-07-27T07:54:44.279Z,1014.05
2022-07-27T07:55:44.316Z,1014.04
2022-07-27T07:56:44.253Z,1013.95
2022-07-27T07:57:44.253Z,1014.11
2022-07-27T07:58:44.234Z,1014.00
2022-07-27T07:59:44.236Z,1014.06
2022-07-27T08:00:44.215Z,1014.08
2022-07-27T08:01:44.316Z,1014.07
2022-07-27T08:02:44.229Z,1014.10
2022-07-27T08:03:50.278Z,1014.10
2022-07-27T08:04:45.187Z,1014.05
2022-07-27T08:05:44.166Z,1014.02
2022-07-27T08:06:44.155Z,1014.06
2022-07-27T08:07:44.138Z,1014.00
2022-07-27T08:08:44.118Z,1014.07
2022-07-27T08:09:44.111Z,1014.04
2022-07-27T08:10:44.111Z,1014.02
2022-07-27T08:11:44.102Z,1014.08
2022-07-27T08:12:44.074Z,1014.05
2022-07-27T08:13:44.068Z,1014.06
2022-07-27T08:14:44.054Z,1014.10
2022-07-27T08:15:44.163Z,1014.12
2022-07-27T08:16:44.092Z,1014.10
2022-07-27T08:17:44.041Z,1014.06
2022-07-27T08:18:44.019Z,1014.02
2022-07-27T08:19:43.999Z,1014.08
2022-07-27T08:20:44.002Z,1014.04
2022-07-27T08:21:43.990Z,1014.02
2022-07-27T08:22:43.965Z,1014.07
2022-07-27T08:23:43.960Z,1014.09
2022-07-27T08:24:43.939Z,1014.09
2022-07-27T08:25:43.944Z,1014.11
2022-07-27T08:26:43.924Z,1014.11
2022-07-27T08:27:43.943Z,1014.07
2022-07-27T08:28:43.909Z,1014.03
2022-07-27T08:29:43.887Z,1014.07
2022-07-27T08:30:43.890Z,1014.09
2022-07-27T08:31:52.569Z,1014.09
2022-07-27T08:32:44.863Z,1014.10
2022-07-27T08:33:43.858Z,1014.10
2022-07-27T08:34:43.831Z,1014.13
2022-07-27T08:35:43.819Z,1014.17
2022-07-27T08:36:43.823Z,1014.15
2022-07-27T08:37:43.808Z,1014.19
2022-07-27T08:38:43.802Z,1014.20
2022-07-27T08:40:46.480Z,1014.15
2022-07-27T08:41:43.763Z,1014.23
2022-07-27T08:42:43.740Z,1014.09
2022-07-27T08:43:43.737Z,1014.15
2022-07-27T08:44:43.715Z,1014.10
2022-07-27T08:45:43.705Z,1014.12
2022-07-27T08:46:43.802Z,1014.09
2022-07-27T08:47:43.684Z,1014.17
2022-07-27T08:48:43.713Z,1014.16
2022-07-27T08:49:44.315Z,1014.18
2022-07-27T08:50:43.659Z,1014.11
2022-07-27T08:51:47.096Z,1014.18
2022-07-27T08:52:43.628Z,1014.21
2022-07-27T08:53:53.588Z,1014.20
2022-07-27T08:54:44.611Z,1014.17
2022-07-27T08:55:43.596Z,1014.19
2022-07-27T08:56:43.594Z,1014.05
2022-07-27T08:57:43.570Z,1014.18
2022-07-27T08:58:43.563Z,1014.16
2022-07-27T08:59:43.552Z,1014.16
2022-07-27T09:00:43.553Z,1014.16
2022-07-27T09:01:43.579Z,1014.17
2022-07-27T09:02:43.570Z,1014.17
2022-07-27T09:03:43.646Z,1014.23
2022-07-27T09:04:43.491Z,1014.14
2022-07-27T09:05:43.504Z,1014.06
2022-07-27T09:06:43.480Z,1014.13
2022-07-27T09:07:43.457Z,1014.08
2022-07-27T09:08:43.468Z,1014.08
2022-07-27T09:09:43.435Z,1014.13
2022-07-27T09:10:43.421Z,1014.12
2022-07-27T09:11:43.429Z,1014.16
2022-07-27T09:12:43.398Z,1014.11
2022-07-27T09:13:43.423Z,1014.10
2022-07-27T09:14:43.378Z,1014.18
2022-07-27T09:16:12.543Z,1014.16
2022-07-27T09:17:44.201Z,1014.23
2022-07-27T09:17:49.165Z,1014.24
2022-07-27T09:18:44.347Z,1014.24
2022-07-27T09:19:43.320Z,1014.26
2022-07-27T09:20:43.308Z,1014.19
2022-07-27T09:21:43.302Z,1014.17
2022-07-27T09:22:43.287Z,1014.17
2022-07-27T09:23:43.326Z,1014.27
2022-07-27T09:24:47.476Z,1014.15
2022-07-27T09:26:03.192Z,1014.14
2022-07-27T09:26:44.247Z,1014.13
2022-07-27T09:27:43.234Z,1014.16
2022-07-27T09:28:43.225Z,1014.19
2022-07-27T09:29:43.224Z,1014.14
2022-07-27T09:30:43.334Z,1014.19
2022-07-27T09:31:43.296Z,1014.13
2022-07-27T09:32:43.175Z,1014.14
2022-07-27T09:33:43.165Z,1014.08
2022-07-27T09:34:43.179Z,1014.12
2022-07-27T09:35:43.143Z,1014.08
2022-07-27T09:36:43.128Z,1014.11
2022-07-27T09:37:43.127Z,1014.10
2022-07-27T09:38:43.106Z,1014.01
2022-07-27T09:39:43.117Z,1014.00
2022-07-27T09:40:43.098Z,1014.05
2022-07-27T09:41:43.133Z,1014.06
2022-07-27T09:43:14.537Z,1014.05
2022-07-27T09:44:45.012Z,1014.05
2022-07-27T09:45:43.032Z,1013.97
2022-07-27T09:46:44.103Z,1014.06
2022-07-27T09:47:43.008Z,1014.01
2022-07-27T09:48:43.043Z,1014.03
2022-07-27T09:49:43.012Z,1014.12
2022-07-27T09:50:58.353Z,1014.22
2022-07-27T09:51:59.610Z,1014.11
2022-07-27T09:52:43.957Z,1014.11
2022-07-27T09:53:44.183Z,1014.18
2022-07-27T09:54:42.944Z,1014.16
2022-07-27T09:55:42.918Z,1014.14
2022-07-27T09:56:42.918Z,1014.17
2022-07-27T09:57:42.896Z,1014.22
2022-07-27T09:58:42.893Z,1014.18
2022-07-27T09:59:42.880Z,1014.21
2022-07-27T10:00:42.860Z,1014.21
2022-07-27T10:01:48.764Z,1014.22
2022-07-27T10:02:43.834Z,1014.23
2022-07-27T10:03:42.827Z,1014.30
2022-07-27T10:04:42.948Z,1014.28
2022-07-27T10:05:42.808Z,1014.29
2022-07-27T10:07:01.042Z,1014.31
2022-07-27T10:07:43.780Z,1014.27
2022-07-27T10:08:42.768Z,1014.31
2022-07-27T10:09:42.766Z,1014.30
2022-07-27T10:10:42.779Z,1014.31
2022-07-27T10:11:42.749Z,1014.33
2022-07-27T10:12:42.725Z,1014.30
2022-07-27T10:13:43.599Z,1014.27
2022-07-27T10:14:42.716Z,1014.29
2022-07-27T10:15:42.741Z,1014.30
2022-07-27T10:16:42.701Z,1014.29
2022-07-27T10:17:43.968Z,1014.31
2022-07-27T10:18:43.817Z,1014.30
2022-07-27T10:19:43.650Z,1014.32
2022-07-27T10:20:42.657Z,1014.34
2022-07-27T10:21:42.622Z,1014.34
2022-07-27T10:22:42.614Z,1014.33
2022-07-27T10:23:42.598Z,1014.32
2022-07-27T10:24:42.589Z,1014.35
2022-07-27T10:25:42.608Z,1014.40
2022-07-27T10:26:42.593Z,1014.38
2022-07-27T10:27:42.552Z,1014.37
2022-07-27T10:28:42.549Z,1014.36
2022-07-27T10:29:42.530Z,1014.38
2022-07-27T10:30:42.586Z,1014.36
2022-07-27T10:31:42.571Z,1014.34
2022-07-27T10:32:42.503Z,1014.42
2022-07-27T10:33:42.503Z,1014.35
2022-07-27T10:34:42.477Z,1014.34
2022-07-27T10:35:42.468Z,1014.41
2022-07-27T10:36:42.472Z,1014.46
2022-07-27T10:37:42.450Z,1014.40
2022-07-27T10:38:42.435Z,1014.45
2022-07-27T10:39:42.425Z,1014.41
2022-07-27T10:40:42.411Z,1014.32
2022-07-27T10:41:42.412Z,1014.33
2022-07-27T10:42:42.387Z,1014.37
2022-07-27T10:43:42.394Z,1014.34
2022-07-27T10:44:42.370Z,1014.33
2022-07-27T10:45:55.177Z,1014.33
2022-07-27T10:46:43.412Z,1014.36
2022-07-27T10:47:42.329Z,1014.36
2022-07-27T10:48:48.326Z,1014.29
2022-07-27T10:49:43.329Z,1014.37
2022-07-27T10:50:42.307Z,1014.33
2022-07-27T10:51:42.301Z,1014.31
2022-07-27T10:52:42.276Z,1014.36
2022-07-27T10:54:10.382Z,1014.32
2022-07-27T10:54:46.813Z,1014.36
2022-07-27T10:55:43.239Z,1014.33
2022-07-27T10:56:42.247Z,1014.36
2022-07-27T10:57:42.218Z,1014.32
2022-07-27T10:58:42.211Z,1014.32
2022-07-27T11:00:07.605Z,1014.26
2022-07-27T11:00:43.199Z,1014.30
2022-07-27T11:01:42.290Z,1014.38
2022-07-27T11:02:42.177Z,1014.36
2022-07-27T11:03:42.598Z,1014.30
2022-07-27T11:04:42.239Z,1014.31
2022-07-27T11:05:59.688Z,1014.35
2022-07-27T11:07:22.617Z,1014.19
2022-07-27T11:07:45.748Z,1014.29
2022-07-27T11:08:47.552Z,1014.35
2022-07-27T11:10:43.074Z,1014.25
2022-07-27T11:11:42.074Z,1014.31
2022-07-27T11:12:42.075Z,1014.34
2022-07-27T11:13:42.049Z,1014.26
2022-07-27T11:14:42.031Z,1014.36
2022-07-27T11:15:42.014Z,1014.36
2022-07-27T11:16:54.877Z,1014.33
2022-07-27T11:17:58.557Z,1014.35
2022-07-27T11:18:43.022Z,1014.32
2022-07-27T11:19:41.971Z,1014.39
2022-07-27T11:20:41.959Z,1014.30
2022-07-27T11:21:41.967Z,1014.36
2022-07-27T11:23:51.609Z,1014.31
2022-07-27T11:24:42.929Z,1014.27
2022-07-27T11:25:41.903Z,1014.23
2022-07-27T11:26:41.893Z,1014.27
2022-07-27T11:27:41.894Z,1014.27
2022-07-27T11:28:41.872Z,1014.26
2022-07-27T11:29:43.800Z,1014.29
2022-07-27T11:30:41.918Z,1014.35
2022-07-27T11:31:58.587Z,1014.31
2022-07-27T11:32:42.842Z,1014.31
2022-07-27T11:33:41.812Z,1014.26
2022-07-27T11:34:41.799Z,1014.23
2022-07-27T11:35:41.805Z,1014.27
2022-07-27T11:36:41.783Z,1014.22
2022-07-27T11:37:43.264Z,1014.23
2022-07-27T11:38:41.774Z,1014.27
2022-07-27T11:40:37.052Z,1014.20
2022-07-27T11:41:12.791Z,1014.20
2022-07-27T11:42:07.822Z,1014.21
2022-07-27T11:42:42.732Z,1014.23
2022-07-27T11:43:42.120Z,1014.17
2022-07-27T11:44:41.699Z,1014.16
2022-07-27T11:45:41.711Z,1014.14
2022-07-27T11:46:41.674Z,1014.21
2022-07-27T11:47:41.654Z,1014.13
2022-07-27T11:49:04.994Z,1014.15
2022-07-27T11:49:42.678Z,1014.18
2022-07-27T11:50:42.623Z,1014.16
2022-07-27T11:51:41.609Z,1014.12
2022-07-27T11:52:41.621Z,1014.00
2022-07-27T11:53:41.585Z,1014.11
2022-07-27T11:54:41.593Z,1013.98
2022-07-27T11:55:41.563Z,1014.04
2022-07-27T11:56:41.560Z,1014.02
2022-07-27T11:57:41.546Z,1013.99
2022-07-27T11:58:41.563Z,1013.96
2022-07-27T11:59:41.523Z,1013.98
2022-07-27T12:00:41.520Z,1014.01
2022-07-27T12:01:41.496Z,1014.06
2022-07-27T12:02:41.527Z,1013.98
2022-07-27T12:03:47.275Z,1013.98
2022-07-27T12:04:42.565Z,1014.00
2022-07-27T12:05:41.467Z,1014.04
2022-07-27T12:06:41.442Z,1013.95
2022-07-27T12:07:41.430Z,1013.93
2022-07-27T12:08:41.418Z,1013.98
2022-07-27T12:09:41.420Z,1013.93